Time,TemperatureF,DewpointF,PressureIn,WindDirection,WindDirectionDegrees,WindSpeedMPH,WindSpeedGustMPH,Humidity,HourlyPrecipIn,Conditions,Clouds,dailyrainin,SoftwareType,DateUTC
2013-03-03 00:01:00,44.2,-0.5,25.75,South,187,5.4,6.3,15,0.00,,---,0.00,VWS V14.01,2013-03-03 07:01:00,
2013-03-03 00:06:00,43.7,-0.9,25.75,South,178,5.4,5.8,15,0.00,,---,0.00,VWS V14.01,2013-03-03 07:06:00,
2013-03-03 00:11:00,43.7,-0.9,25.75,South,186,6.7,7.6,15,0.00,,---,0.00,VWS V14.01,2013-03-03 07:11:00,
2013-03-03 00:16:00,43.7,-0.9,25.75,South,183,4.9,4.9,15,0.00,,---,0.00,VWS V14.01,2013-03-03 07:16:00,
2013-03-03 00:21:00,43.7,-0.9,25.75,South,183,6.3,6.3,15,0.00,,---,0.00,VWS V14.01,2013-03-03 07:21:00,
2013-03-03 00:26:00,44.1,-0.6,25.75,South,185,7.2,7.2,15,0.00,,---,0.00,VWS V14.01,2013-03-03 07:26:00,
2013-03-03 00:31:00,44.1,-0.6,25.75,South,182,0.0,0.0,15,0.00,,---,0.00,VWS V14.01,2013-03-03 07:31:00,
2013-03-03 00:36:00,43.5,-1.1,25.75,SW,234,3.1,3.6,15,0.00,,---,0.00,VWS V14.01,2013-03-03 07:36:00,
2013-03-03 00:41:00,42.8,-1.6,25.75,WSW,237,0.0,0.0,15,0.00,,---,0.00,VWS V14.01,2013-03-03 07:41:00,
2013-03-03 00:46:00,42.3,-0.7,25.75,WSW,237,3.6,4.0,16,0.00,,---,0.00,VWS V14.01,2013-03-03 07:46:00,
2013-03-03 00:51:00,42.1,-0.9,25.75,WSW,241,0.0,0.0,16,0.00,,---,0.00,VWS V14.01,2013-03-03 07:51:00,
2013-03-03 00:56:00,40.6,-2.0,25.75,East,92,2.7,3.1,16,0.00,,---,0.00,VWS V14.01,2013-03-03 07:56:00,
2013-03-03 01:01:00,40.1,-2.5,25.75,East,92,0.0,0.0,16,0.00,,---,0.00,VWS V14.01,2013-03-03 08:01:00,
2013-03-03 01:06:00,39.7,-2.8,25.75,SE,124,3.1,3.6,16,0.00,,---,0.00,VWS V14.01,2013-03-03 08:06:00,
2013-03-03 01:11:00,39.4,-3.1,25.75,SE,131,3.6,3.6,16,0.00,,---,0.00,VWS V14.01,2013-03-03 08:11:00,
2013-03-03 01:16:00,38.7,-3.7,25.75,SSE,151,4.5,4.5,16,0.00,,---,0.00,VWS V14.01,2013-03-03 08:16:00,
2013-03-03 01:21:00,38.5,-3.8,25.75,SSE,162,5.4,5.4,16,0.00,,---,0.00,VWS V14.01,2013-03-03 08:21:00,
2013-03-03 01:26:00,38.7,-3.7,25.75,SSE,167,5.8,6.3,16,0.00,,---,0.00,VWS V14.01,2013-03-03 08:26:00,
2013-03-03 01:32:00,38.7,-3.7,25.75,South,170,5.8,5.8,16,0.00,,---,0.00,VWS V14.01,2013-03-03 08:32:00,
2013-03-03 01:37:00,38.8,-3.5,25.75,South,177,5.8,6.3,16,0.00,,---,0.00,VWS V14.01,2013-03-03 08:37:00,
2013-03-03 01:42:00,38.7,-3.7,25.75,South,181,5.4,5.4,16,0.00,,---,0.00,VWS V14.01,2013-03-03 08:42:00,
2013-03-03 01:47:00,38.5,-3.8,25.75,South,181,5.4,5.4,16,0.00,,---,0.00,VWS V14.01,2013-03-03 08:47:00,
2013-03-03 01:52:00,38.3,-4.0,25.75,South,186,4.0,5.4,16,0.00,,---,0.00,VWS V14.01,2013-03-03 08:52:00,
2013-03-03 01:57:00,37.9,-4.2,25.75,South,178,4.5,4.9,16,0.00,,---,0.00,VWS V14.01,2013-03-03 08:57:00,
2013-03-03 02:02:00,37.8,-4.4,25.75,SSE,167,4.9,5.4,16,0.00,,---,0.00,VWS V14.01,2013-03-03 09:02:00,
2013-03-03 02:07:00,37.8,-4.4,25.75,South,169,5.4,6.3,16,0.00,,---,0.00,VWS V14.01,2013-03-03 09:07:00,
2013-03-03 02:12:00,37.6,-4.5,25.75,South,179,6.3,6.3,16,0.00,,---,0.00,VWS V14.01,2013-03-03 09:12:00,
2013-03-03 02:17:00,37.8,-4.4,25.75,South,170,6.3,6.3,16,0.00,,---,0.00,VWS V14.01,2013-03-03 09:17:00,
2013-03-03 02:22:00,37.9,-4.2,25.75,SSE,162,5.4,6.3,16,0.00,,---,0.00,VWS V14.01,2013-03-03 09:22:00,
2013-03-03 02:27:00,37.6,-4.5,25.75,South,174,4.0,6.3,16,0.00,,---,0.00,VWS V14.01,2013-03-03 09:27:00,
2013-03-03 02:32:00,37.2,-3.6,25.72,South,175,5.4,6.3,17,0.00,,---,0.00,VWS V14.01,2013-03-03 09:32:00,
2013-03-03 02:37:00,36.9,-3.9,25.72,South,175,5.8,5.8,17,0.00,,---,0.00,VWS V14.01,2013-03-03 09:37:00,
2013-03-03 02:42:00,36.9,-3.9,25.72,SSE,166,5.4,5.4,17,0.00,,---,0.00,VWS V14.01,2013-03-03 09:42:00,
2013-03-03 02:47:00,36.7,-4.0,25.72,SSE,168,5.4,5.4,17,0.00,,---,0.00,VWS V14.01,2013-03-03 09:47:00,
2013-03-03 02:52:00,36.5,-4.2,25.72,South,169,3.6,4.9,17,0.00,,---,0.00,VWS V14.01,2013-03-03 09:52:00,
2013-03-03 02:57:00,36.3,-4.3,25.72,SSE,164,5.4,5.4,17,0.00,,---,0.00,VWS V14.01,2013-03-03 09:57:00,
2013-03-03 03:02:00,36.0,-4.6,25.72,SSE,162,5.4,5.4,17,0.00,,---,0.00,VWS V14.01,2013-03-03 10:02:00,
2013-03-03 03:07:00,35.8,-4.8,25.72,SSE,159,6.7,6.7,17,0.00,,---,0.00,VWS V14.01,2013-03-03 10:07:00,
2013-03-03 03:12:00,35.8,-4.8,25.72,South,171,4.9,4.9,17,0.00,,---,0.00,VWS V14.01,2013-03-03 10:12:00,
2013-03-03 03:17:00,35.6,-4.9,25.72,South,176,5.8,5.8,17,0.00,,---,0.00,VWS V14.01,2013-03-03 10:17:00,
2013-03-03 03:22:00,35.6,-4.9,25.72,South,186,5.4,5.4,17,0.00,,---,0.00,VWS V14.01,2013-03-03 10:22:00,
2013-03-03 03:27:00,35.4,-5.1,25.72,South,179,5.8,5.8,17,0.00,,---,0.00,VWS V14.01,2013-03-03 10:27:00,
2013-03-03 03:32:00,35.2,-5.2,25.72,South,174,5.4,8.1,17,0.00,,---,0.00,VWS V14.01,2013-03-03 10:32:00,
2013-03-03 03:37:00,35.4,-5.1,25.72,SSE,153,6.3,8.1,17,0.00,,---,0.00,VWS V14.01,2013-03-03 10:37:00,
2013-03-03 03:42:00,35.1,-5.3,25.72,South,178,5.4,7.6,17,0.00,,---,0.00,VWS V14.01,2013-03-03 10:42:00,
2013-03-03 03:47:00,35.1,-5.3,25.69,South,185,8.1,8.1,17,0.00,,---,0.00,VWS V14.01,2013-03-03 10:47:00,
2013-03-03 03:52:00,35.2,-5.2,25.69,SSE,165,6.3,6.7,17,0.00,,---,0.00,VWS V14.01,2013-03-03 10:52:00,
2013-03-03 03:57:00,35.2,-5.2,25.69,SSE,167,7.6,7.6,17,0.00,,---,0.00,VWS V14.01,2013-03-03 10:57:00,
2013-03-03 04:02:00,35.1,-5.3,25.69,South,170,5.8,7.6,17,0.00,,---,0.00,VWS V14.01,2013-03-03 11:02:00,
2013-03-03 04:07:00,34.9,-5.5,25.69,SSE,162,4.9,5.8,17,0.00,,---,0.00,VWS V14.01,2013-03-03 11:07:00,
2013-03-03 04:12:00,34.9,-5.5,25.69,SSE,165,4.9,5.4,17,0.00,,---,0.00,VWS V14.01,2013-03-03 11:12:00,
2013-03-03 04:17:00,34.7,-5.6,25.69,SSE,167,6.3,6.3,17,0.00,,---,0.00,VWS V14.01,2013-03-03 11:17:00,
2013-03-03 04:22:00,34.5,-5.8,25.69,SSE,164,6.7,6.7,17,0.00,,---,0.00,VWS V14.01,2013-03-03 11:22:00,
2013-03-03 04:27:00,34.5,-5.8,25.69,SSE,160,6.3,6.7,17,0.00,,---,0.00,VWS V14.01,2013-03-03 11:27:00,
2013-03-03 12:09:00,85.1,17.2,25.63,West,275,0.0,0.0,8,0.00,,---,0.00,VWS V14.01,2013-03-03 19:09:00,
2013-03-03 12:14:00,86.9,12.0,25.63,SSE,159,5.4,5.4,6,0.00,,---,0.00,VWS V14.01,2013-03-03 19:14:00,
2013-03-03 12:19:00,86.0,17.9,25.63,SE,129,4.0,4.9,8,0.00,,---,0.00,VWS V14.01,2013-03-03 19:19:00,
2013-03-03 12:24:00,86.5,18.3,25.63,West,273,0.0,3.6,8,0.00,,---,0.00,VWS V14.01,2013-03-03 19:24:00,
2013-03-03 12:29:00,87.3,18.9,25.63,SSE,163,5.4,6.3,8,0.00,,---,0.00,VWS V14.01,2013-03-03 19:29:00,
2013-03-03 12:34:00,85.6,17.6,25.63,WSW,245,3.1,5.4,8,0.00,,---,0.00,VWS V14.01,2013-03-03 19:34:00,
2013-03-03 12:39:00,86.5,18.3,25.63,ENE,62,2.2,2.7,8,0.00,,---,0.00,VWS V14.01,2013-03-03 19:39:00,
2013-03-03 12:44:00,86.4,18.2,25.63,ENE,76,3.6,3.6,8,0.00,,---,0.00,VWS V14.01,2013-03-03 19:44:00,
2013-03-03 12:49:00,86.9,18.6,25.63,WSW,257,4.9,6.3,8,0.00,,---,0.00,VWS V14.01,2013-03-03 19:49:00,
2013-03-03 12:54:00,86.4,18.2,25.63,West,279,3.1,4.9,8,0.00,,---,0.00,VWS V14.01,2013-03-03 19:54:00,
2013-03-03 12:59:00,86.9,18.6,25.63,WNW,287,4.9,5.4,8,0.00,,---,0.00,VWS V14.01,2013-03-03 19:59:00,
2013-03-03 13:04:00,87.4,19.0,25.60,WNW,295,5.4,5.4,8,0.00,,---,0.00,VWS V14.01,2013-03-03 20:04:00,
2013-03-03 13:09:00,86.2,18.0,25.60,WNW,290,3.1,8.3,8,0.00,,---,0.00,VWS V14.01,2013-03-03 20:09:00,
2013-03-03 13:14:00,86.0,17.9,25.60,NW,321,7.6,7.6,8,0.00,,---,0.00,VWS V14.01,2013-03-03 20:14:00,
2013-03-03 13:19:00,85.6,17.6,25.60,South,190,5.4,17.0,8,0.00,,---,0.00,VWS V14.01,2013-03-03 20:19:00,
2013-03-03 13:24:00,84.0,19.2,25.60,WNW,289,12.8,13.2,9,0.00,,---,0.00,VWS V14.01,2013-03-03 20:24:00,
2013-03-03 13:29:00,84.2,16.6,25.60,WSW,248,17.0,17.0,8,0.00,,---,0.00,VWS V14.01,2013-03-03 20:29:00,
2013-03-03 13:34:00,84.2,16.6,25.60,WSW,253,8.1,11.9,8,0.00,,---,0.00,VWS V14.01,2013-03-03 20:34:00,
2013-03-03 13:39:00,84.7,17.0,25.60,West,270,5.8,5.8,8,0.00,,---,0.00,VWS V14.01,2013-03-03 20:39:00,
2013-03-03 13:45:00,84.0,19.2,25.60,WNW,287,7.6,7.6,9,0.00,,---,0.00,VWS V14.01,2013-03-03 20:45:00,
2013-03-03 13:50:00,83.5,18.8,25.60,WSW,248,7.6,8.7,9,0.00,,---,0.00,VWS V14.01,2013-03-03 20:50:00,
2013-03-03 13:55:00,84.0,19.2,25.60,WNW,291,7.2,10.5,9,0.00,,---,0.00,VWS V14.01,2013-03-03 20:55:00,
2013-03-03 14:00:00,83.1,18.5,25.60,WNW,296,13.6,13.6,9,0.00,,---,0.00,VWS V14.01,2013-03-03 21:00:00,
2013-03-03 14:05:00,84.0,9.9,25.60,WSW,241,6.3,6.3,6,0.00,,---,0.00,VWS V14.01,2013-03-03 21:05:00,
2013-03-03 14:10:00,85.1,17.2,25.60,West,266,6.3,6.3,8,0.00,,---,0.00,VWS V14.01,2013-03-03 21:10:00,
2013-03-03 14:15:00,84.6,16.9,25.60,West,262,8.7,15.4,8,0.00,,---,0.00,VWS V14.01,2013-03-03 21:15:00,
2013-03-03 14:20:00,84.6,16.9,25.60,West,270,4.5,4.5,8,0.00,,---,0.00,VWS V14.01,2013-03-03 21:20:00,
2013-03-03 14:25:00,84.6,16.9,25.60,WSW,254,14.5,14.5,8,0.00,,---,0.00,VWS V14.01,2013-03-03 21:25:00,
2013-03-03 14:30:00,83.8,19.0,25.60,WNW,283,6.3,6.3,9,0.00,,---,0.00,VWS V14.01,2013-03-03 21:30:00,
2013-03-03 14:35:00,82.9,18.4,25.60,WNW,293,6.3,6.3,9,0.00,,---,0.00,VWS V14.01,2013-03-03 21:35:00,
2013-03-03 14:40:00,83.7,9.7,25.60,WNW,287,4.0,4.0,6,0.00,,---,0.00,VWS V14.01,2013-03-03 21:40:00,
2013-03-03 14:45:00,83.1,18.5,25.60,West,269,3.6,3.6,9,0.00,,---,0.00,VWS V14.01,2013-03-03 21:45:00,
2013-03-03 14:50:00,81.9,11.8,25.60,WNW,286,7.2,7.2,7,0.00,,---,0.00,VWS V14.01,2013-03-03 21:50:00,
2013-03-03 14:55:00,83.3,18.6,25.60,West,279,4.0,7.6,9,0.00,,---,0.00,VWS V14.01,2013-03-03 21:55:00,
2013-03-03 15:00:00,82.4,18.0,25.60,WSW,249,5.4,15.0,9,0.00,,---,0.00,VWS V14.01,2013-03-03 22:00:00,
2013-03-03 15:05:00,82.2,17.8,25.60,West,270,14.5,14.5,9,0.00,,---,0.00,VWS V14.01,2013-03-03 22:05:00,
2013-03-03 15:10:00,81.5,17.3,25.60,West,262,3.6,5.4,9,0.00,,---,0.00,VWS V14.01,2013-03-03 22:10:00,
2013-03-03 15:15:00,80.2,10.6,25.60,West,269,5.8,5.8,7,0.00,,---,0.00,VWS V14.01,2013-03-03 22:15:00,
2013-03-03 15:21:00,79.7,10.2,25.57,West,281,8.3,10.1,7,0.00,,---,0.00,VWS V14.01,2013-03-03 22:21:00,
2013-03-03 15:26:00,80.1,10.5,25.57,West,260,6.3,12.8,7,0.00,,---,0.00,VWS V14.01,2013-03-03 22:26:00,
2013-03-03 15:31:00,78.8,9.6,25.57,West,263,11.0,11.0,7,0.00,,---,0.00,VWS V14.01,2013-03-03 22:31:00,
2013-03-03 15:36:00,79.2,18.0,25.60,West,268,7.6,10.5,10,0.00,,---,0.00,VWS V14.01,2013-03-03 22:36:00,
2013-03-03 15:41:00,79.3,10.0,25.60,WNW,295,12.3,18.3,7,0.00,,---,0.00,VWS V14.01,2013-03-03 22:41:00,
2013-03-03 15:46:00,79.9,10.4,25.60,WSW,241,5.8,21.9,7,0.00,,---,0.00,VWS V14.01,2013-03-03 22:46:00,
2013-03-03 15:51:00,79.7,18.4,25.60,WSW,254,8.3,8.3,10,0.00,,---,0.00,VWS V14.01,2013-03-03 22:51:00,
2013-03-03 15:56:00,80.1,18.6,25.60,West,272,8.1,8.1,10,0.00,,---,0.00,VWS V14.01,2013-03-03 22:56:00,
2013-03-03 16:01:00,79.5,18.2,25.60,West,266,8.3,15.4,10,0.00,,---,0.00,VWS V14.01,2013-03-03 23:01:00,
2013-03-03 16:06:00,79.7,10.2,25.60,WSW,251,6.3,8.7,7,0.00,,---,0.00,VWS V14.01,2013-03-03 23:06:00,
2013-03-03 16:11:00,79.3,18.1,25.60,WSW,245,10.1,14.5,10,0.00,,---,0.00,VWS V14.01,2013-03-03 23:11:00,
2013-03-03 16:16:00,79.5,18.2,25.60,West,277,4.0,7.6,10,0.00,,---,0.00,VWS V14.01,2013-03-03 23:16:00,
2013-03-03 16:21:00,79.0,17.8,25.60,West,279,7.6,8.1,10,0.00,,---,0.00,VWS V14.01,2013-03-03 23:21:00,
2013-03-03 16:26:00,78.4,12.3,25.60,WSW,247,12.8,12.8,8,0.00,,---,0.00,VWS V14.01,2013-03-03 23:26:00,
2013-03-03 16:31:00,77.9,11.9,25.60,West,260,10.5,10.5,8,0.00,,---,0.00,VWS V14.01,2013-03-03 23:31:00,
2013-03-03 16:36:00,77.5,11.6,25.60,WNW,290,4.0,8.3,8,0.00,,---,0.00,VWS V14.01,2013-03-03 23:36:00,
2013-03-03 16:41:00,77.2,11.4,25.60,WNW,293,5.8,5.8,8,0.00,,---,0.00,VWS V14.01,2013-03-03 23:41:00,
2013-03-03 16:46:00,77.2,11.4,25.60,West,269,2.7,6.3,8,0.00,,---,0.00,VWS V14.01,2013-03-03 23:46:00,
2013-03-03 16:51:00,76.3,10.7,25.60,WSW,255,3.1,4.9,8,0.00,,---,0.00,VWS V14.01,2013-03-03 23:51:00,
2013-03-03 16:56:00,76.6,11.0,25.60,West,265,8.1,8.7,8,0.00,,---,0.00,VWS V14.01,2013-03-03 23:56:00,
2013-03-03 17:01:00,76.6,11.0,25.60,West,269,8.3,8.3,8,0.00,,---,0.00,VWS V14.01,2013-03-04 00:01:00,
2013-03-03 17:06:00,75.9,10.4,25.60,WNW,300,7.6,7.6,8,0.00,,---,0.00,VWS V14.01,2013-03-04 00:06:00,
2013-03-03 17:11:00,74.8,9.6,25.60,WSW,256,3.1,4.9,8,0.00,,---,0.00,VWS V14.01,2013-03-04 00:11:00,
2013-03-03 17:16:00,73.9,9.0,25.60,West,267,4.0,4.0,8,0.00,,---,0.00,VWS V14.01,2013-03-04 00:16:00,
2013-03-03 17:21:00,73.2,11.1,25.60,West,272,3.6,3.6,9,0.00,,---,0.00,VWS V14.01,2013-03-04 00:21:00,
2013-03-03 17:26:00,72.9,10.8,25.60,West,275,4.9,4.9,9,0.00,,---,0.00,VWS V14.01,2013-03-04 00:26:00,
2013-03-03 17:31:00,72.7,10.6,25.60,WSW,246,4.9,4.9,9,0.00,,---,0.00,VWS V14.01,2013-03-04 00:31:00,
2013-03-03 17:36:00,72.3,10.4,25.60,WSW,254,3.6,5.4,9,0.00,,---,0.00,VWS V14.01,2013-03-04 00:36:00,
2013-03-03 17:41:00,72.1,10.2,25.60,West,276,3.6,5.4,9,0.00,,---,0.00,VWS V14.01,2013-03-04 00:41:00,
2013-03-03 17:46:00,71.8,10.0,25.60,WSW,247,7.2,9.6,9,0.00,,---,0.00,VWS V14.01,2013-03-04 00:46:00,
2013-03-03 17:51:00,71.8,10.0,25.60,WSW,253,2.7,8.3,9,0.00,,---,0.00,VWS V14.01,2013-03-04 00:51:00,
2013-03-03 17:56:00,71.6,9.8,25.60,SW,225,5.8,5.8,9,0.00,,---,0.00,VWS V14.01,2013-03-04 00:56:00,
2013-03-03 18:01:00,71.2,9.6,25.60,SSW,203,3.6,3.6,9,0.00,,---,0.00,VWS V14.01,2013-03-04 01:01:00,
2013-03-03 18:06:00,70.9,9.3,25.60,SW,235,7.6,7.6,9,0.00,,---,0.00,VWS V14.01,2013-03-04 01:06:00,
2013-03-03 18:11:00,70.5,9.0,25.60,WSW,237,7.2,8.1,9,0.00,,---,0.00,VWS V14.01,2013-03-04 01:11:00,
2013-03-03 18:16:00,70.0,8.6,25.60,West,263,4.0,6.3,9,0.00,,---,0.00,VWS V14.01,2013-03-04 01:16:00,
2013-03-03 18:21:00,69.1,10.3,25.60,WSW,239,2.7,3.6,10,0.00,,---,0.00,VWS V14.01,2013-03-04 01:21:00,
2013-03-03 18:26:00,69.1,10.3,25.60,SW,230,4.0,6.3,10,0.00,,---,0.00,VWS V14.01,2013-03-04 01:26:00,
2013-03-03 18:31:00,68.7,10.0,25.60,WSW,248,4.0,4.0,10,0.00,,---,0.00,VWS V14.01,2013-03-04 01:31:00,
2013-03-03 18:36:00,68.2,9.6,25.60,WSW,255,2.7,4.0,10,0.00,,---,0.00,VWS V14.01,2013-03-04 01:36:00,
2013-03-03 18:42:00,67.6,9.1,25.60,WSW,240,0.0,0.0,10,0.00,,---,0.00,VWS V14.01,2013-03-04 01:42:00,
2013-03-03 18:47:00,66.9,8.6,25.60,SW,227,0.0,0.0,10,0.00,,---,0.00,VWS V14.01,2013-03-04 01:47:00,
2013-03-03 18:52:00,66.6,8.3,25.60,WSW,245,0.0,3.1,10,0.00,,---,0.00,VWS V14.01,2013-03-04 01:52:00,
2013-03-03 18:57:00,66.0,7.9,25.60,WSW,249,0.0,0.0,10,0.00,,---,0.00,VWS V14.01,2013-03-04 01:57:00,
2013-03-03 19:02:00,65.8,7.8,25.60,SSW,207,0.0,0.0,10,0.00,,---,0.00,VWS V14.01,2013-03-04 02:02:00,
2013-03-03 19:07:00,65.7,7.6,25.60,WSW,256,3.6,3.6,10,0.00,,---,0.00,VWS V14.01,2013-03-04 02:07:00,
2013-03-03 19:12:00,65.3,7.4,25.60,WSW,242,3.1,3.6,10,0.00,,---,0.00,VWS V14.01,2013-03-04 02:12:00,
2013-03-03 19:18:00,65.1,7.2,25.60,WSW,250,3.1,5.4,10,0.00,,---,0.00,VWS V14.01,2013-03-04 02:18:00,
2013-03-03 19:23:00,64.4,6.7,25.60,WSW,246,2.7,2.7,10,0.00,,---,0.00,VWS V14.01,2013-03-04 02:23:00,
2013-03-03 19:28:00,64.4,6.7,25.60,WSW,250,3.6,5.4,10,0.00,,---,0.00,VWS V14.01,2013-03-04 02:28:00,
2013-03-03 19:33:00,64.9,7.1,25.60,West,270,0.0,3.6,10,0.00,,---,0.00,VWS V14.01,2013-03-04 02:33:00,
2013-03-03 19:38:00,63.9,8.4,25.60,West,275,0.0,0.0,11,0.00,,---,0.00,VWS V14.01,2013-03-04 02:38:00,
2013-03-03 19:43:00,64.0,8.5,25.60,WNW,300,3.1,4.0,11,0.00,,---,0.00,VWS V14.01,2013-03-04 02:43:00,
2013-03-03 19:48:00,63.9,8.4,25.60,West,268,4.0,4.0,11,0.00,,---,0.00,VWS V14.01,2013-03-04 02:48:00,
2013-03-03 19:53:00,64.4,6.7,25.60,WNW,283,0.0,3.1,10,0.00,,---,0.00,VWS V14.01,2013-03-04 02:53:00,
2013-03-03 19:58:00,63.7,8.2,25.60,WSW,240,2.2,2.2,11,0.00,,---,0.00,VWS V14.01,2013-03-04 02:58:00,
2013-03-03 20:03:00,63.5,8.1,25.60,WSW,244,5.4,5.8,11,0.00,,---,0.00,VWS V14.01,2013-03-04 03:03:00,
2013-03-03 20:08:00,63.5,8.1,25.60,WSW,257,3.1,5.4,11,0.00,,---,0.00,VWS V14.01,2013-03-04 03:08:00,
2013-03-03 20:13:00,63.3,7.9,25.60,West,269,0.0,0.0,11,0.00,,---,0.00,VWS V14.01,2013-03-04 03:13:00,
2013-03-03 20:18:00,63.0,7.7,25.60,West,268,0.0,0.0,11,0.00,,---,0.00,VWS V14.01,2013-03-04 03:18:00,
2013-03-03 20:23:00,61.2,6.3,25.60,NE,47,3.1,3.6,11,0.00,,---,0.00,VWS V14.01,2013-03-04 03:23:00,
2013-03-03 20:28:00,60.4,7.6,25.60,NNE,30,4.9,4.9,12,0.00,,---,0.00,VWS V14.01,2013-03-04 03:28:00,
2013-03-03 20:33:00,60.1,7.3,25.60,North,353,3.1,3.1,12,0.00,,---,0.00,VWS V14.01,2013-03-04 03:33:00,
2013-03-03 20:38:00,59.9,7.2,25.60,West,275,0.0,0.0,12,0.00,,---,0.00,VWS V14.01,2013-03-04 03:38:00,
2013-03-03 20:43:00,59.7,7.0,25.60,West,259,3.1,3.1,12,0.00,,---,0.00,VWS V14.01,2013-03-04 03:43:00,
2013-03-03 20:48:00,59.4,6.8,25.63,WSW,247,0.0,0.0,12,0.00,,---,0.00,VWS V14.01,2013-03-04 03:48:00,
2013-03-03 20:53:00,58.8,6.3,25.63,NNE,22,3.1,3.1,12,0.00,,---,0.00,VWS V14.01,2013-03-04 03:53:00,
2013-03-03 20:58:00,57.9,5.6,25.63,NE,49,3.1,3.6,12,0.00,,---,0.00,VWS V14.01,2013-03-04 03:58:00,
2013-03-03 21:03:00,57.4,5.2,25.63,SE,140,3.1,3.1,12,0.00,,---,0.00,VWS V14.01,2013-03-04 04:03:00,
2013-03-03 21:08:00,56.8,4.8,25.63,SSE,149,0.0,2.2,12,0.00,,---,0.00,VWS V14.01,2013-03-04 04:08:00,
2013-03-03 21:13:00,57.0,4.9,25.63,East,93,0.0,3.6,12,0.00,,---,0.00,VWS V14.01,2013-03-04 04:13:00,
2013-03-03 21:18:00,56.7,4.6,25.63,ESE,111,4.0,4.0,12,0.00,,---,0.00,VWS V14.01,2013-03-04 04:18:00,
2013-03-03 21:23:00,57.4,5.2,25.63,ENE,68,4.0,5.4,12,0.00,,---,0.00,VWS V14.01,2013-03-04 04:23:00,
2013-03-03 21:28:00,56.8,4.8,25.63,SSE,150,3.1,4.0,12,0.00,,---,0.00,VWS V14.01,2013-03-04 04:28:00,
2013-03-03 21:33:00,56.7,4.6,25.60,SSE,153,4.5,4.9,12,0.00,,---,0.00,VWS V14.01,2013-03-04 04:33:00,
2013-03-03 21:38:00,56.7,4.6,25.60,SSE,159,4.0,4.0,12,0.00,,---,0.00,VWS V14.01,2013-03-04 04:38:00,
2013-03-03 21:43:00,56.7,4.6,25.60,SSE,153,3.6,3.6,12,0.00,,---,0.00,VWS V14.01,2013-03-04 04:43:00,
2013-03-03 21:48:00,56.7,4.6,25.60,South,171,5.4,5.4,12,0.00,,---,0.00,VWS V14.01,2013-03-04 04:48:00,
2013-03-03 21:54:00,56.5,4.5,25.60,SE,145,6.3,6.3,12,0.00,,---,0.00,VWS V14.01,2013-03-04 04:54:00,
2013-03-03 21:59:00,56.1,4.2,25.60,South,179,5.8,6.3,12,0.00,,---,0.00,VWS V14.01,2013-03-04 04:59:00,
2013-03-03 22:00:00,55.9,4.1,25.60,South,189,0.0,3.6,12,0.00,,---,0.00,VWS V14.01,2013-03-04 05:00:00,
2013-03-03 22:05:00,56.3,4.4,25.60,SSE,156,6.3,6.3,12,0.00,,---,0.00,VWS V14.01,2013-03-04 05:05:00,
2013-03-03 22:10:00,56.5,4.5,25.60,SSE,168,8.1,8.1,12,0.00,,---,0.00,VWS V14.01,2013-03-04 05:10:00,
2013-03-03 22:15:00,56.3,4.4,25.60,NW,305,0.0,4.0,12,0.00,,---,0.00,VWS V14.01,2013-03-04 05:15:00,
2013-03-03 22:20:00,56.1,4.2,25.60,NE,52,2.7,2.7,12,0.00,,---,0.00,VWS V14.01,2013-03-04 05:20:00,
2013-03-03 22:25:00,57.2,5.1,25.60,NE,52,0.0,0.0,12,0.00,,---,0.00,VWS V14.01,2013-03-04 05:25:00,
2013-03-03 22:30:00,56.5,4.5,25.60,NE,55,0.0,0.0,12,0.00,,---,0.00,VWS V14.01,2013-03-04 05:30:00,
2013-03-03 22:35:00,57.0,4.9,25.60,ESE,114,4.0,4.0,12,0.00,,---,0.00,VWS V14.01,2013-03-04 05:35:00,
2013-03-03 22:40:00,57.9,5.6,25.60,SE,127,2.7,3.6,12,0.00,,---,0.00,VWS V14.01,2013-03-04 05:40:00,
2013-03-03 22:45:00,57.4,5.2,25.60,West,261,0.0,0.0,12,0.00,,---,0.00,VWS V14.01,2013-03-04 05:45:00,
2013-03-03 22:50:00,57.6,5.3,25.60,West,262,0.0,0.0,12,0.00,,---,0.00,VWS V14.01,2013-03-04 05:50:00,
2013-03-03 22:55:00,57.0,4.9,25.60,West,262,0.0,0.0,12,0.00,,---,0.00,VWS V14.01,2013-03-04 05:55:00,
2013-03-03 23:00:00,56.5,4.5,25.60,NNW,329,4.9,4.9,12,0.00,,---,0.00,VWS V14.01,2013-03-04 06:00:00,
2013-03-03 23:05:00,57.2,5.1,25.60,ESE,114,2.7,3.1,12,0.00,,---,0.00,VWS V14.01,2013-03-04 06:05:00,
2013-03-03 23:10:00,57.2,5.1,25.60,South,191,4.5,5.8,12,0.00,,---,0.00,VWS V14.01,2013-03-04 06:10:00,
2013-03-03 23:16:00,57.2,5.1,25.60,SSW,213,2.2,2.7,12,0.00,,---,0.00,VWS V14.01,2013-03-04 06:16:00,
2013-03-03 23:21:00,58.5,6.1,25.60,South,179,8.7,8.7,12,0.00,,---,0.00,VWS V14.01,2013-03-04 06:21:00,
2013-03-03 23:26:00,59.4,6.8,25.60,SSE,167,11.0,11.0,12,0.00,,---,0.00,VWS V14.01,2013-03-04 06:26:00,
2013-03-03 23:31:00,59.2,6.6,25.60,SSE,164,13.2,13.2,12,0.00,,---,0.00,VWS V14.01,2013-03-04 06:31:00,
2013-03-03 23:36:00,58.5,6.1,25.57,South,186,7.6,7.6,12,0.00,,---,0.00,VWS V14.01,2013-03-04 06:36:00,
2013-03-03 23:41:00,58.3,5.9,25.57,SSE,160,9.2,10.1,12,0.00,,---,0.00,VWS V14.01,2013-03-04 06:41:00,
2013-03-03 23:46:00,59.2,6.6,25.57,SSE,162,11.0,12.8,12,0.00,,---,0.00,VWS V14.01,2013-03-04 06:46:00,
2013-03-03 23:51:00,58.8,6.3,25.57,SSE,165,10.5,11.0,12,0.00,,---,0.00,VWS V14.01,2013-03-04 06:51:00,
2013-03-03 23:56:00,59.2,6.6,25.57,SSE,166,8.7,11.4,12,0.00,,---,0.00,VWS V14.01,2013-03-04 06:56:00,